createdAt,value
2016-04-22T00:00:21.194Z,1014.28
2016-04-22T00:01:21.166Z,1014.27
2016-04-22T00:02:21.138Z,1014.25
2016-04-22T00:03:21.108Z,1014.22
2016-04-22T00:04:21.073Z,1014.23
2016-04-22T00:05:21.061Z,1014.26
2016-04-22T00:06:21.033Z,1014.2
2016-04-22T00:07:21.004Z,1014.24
2016-04-22T00:08:20.975Z,1014.25
2016-04-22T00:09:20.947Z,1014.22
2016-04-22T00:10:20.919Z,1014.19
2016-04-22T00:11:20.889Z,1014.2
2016-04-22T00:12:20.861Z,1014.2
2016-04-22T00:13:20.833Z,1014.24
2016-04-22T00:14:20.805Z,1014.26
2016-04-22T00:15:20.775Z,1014.24
2016-04-22T00:16:20.763Z,1014.23
2016-04-22T00:17:20.718Z,1014.23
2016-04-22T00:18:20.706Z,1014.2
2016-04-22T00:19:20.677Z,1014.19
2016-04-22T00:20:20.649Z,1014.23
2016-04-22T00:21:20.619Z,1014.2
2016-04-22T00:22:20.591Z,1014.21
2016-04-22T00:23:20.563Z,1014.18
2016-04-22T00:24:20.535Z,1014.18
2016-04-22T00:25:20.505Z,1014.15
2016-04-22T00:26:20.477Z,1014.18
2016-04-22T00:27:20.449Z,1014.16
2016-04-22T00:28:20.435Z,1014.19
2016-04-22T00:29:20.391Z,1014.17
2016-04-22T00:30:20.379Z,1014.17
2016-04-22T00:31:20.351Z,1014.12
2016-04-22T00:32:20.321Z,1014.08
2016-04-22T00:33:20.293Z,1014.08
2016-04-22T00:34:20.264Z,1014.1
2016-04-22T00:35:20.236Z,1014.11
2016-04-22T00:36:20.208Z,1014.06
2016-04-22T00:37:20.180Z,1014.05
2016-04-22T00:38:20.152Z,1014.05
2016-04-22T00:39:20.122Z,1014.04
2016-04-22T00:40:20.094Z,1014
2016-04-22T00:41:20.066Z,1014
2016-04-22T00:42:20.052Z,1014.02
2016-04-22T00:43:20.007Z,1014.03
2016-04-22T00:44:19.996Z,1014
2016-04-22T00:45:19.967Z,1013.97
2016-04-22T00:46:19.938Z,1013.96
2016-04-22T00:47:19.909Z,1013.98
2016-04-22T00:48:19.881Z,1013.91
2016-04-22T00:49:19.852Z,1013.94
2016-04-22T00:50:19.824Z,1013.91
2016-04-22T00:51:19.795Z,1013.88
2016-04-22T00:52:19.767Z,1013.88
2016-04-22T00:53:19.739Z,1013.88
2016-04-22T00:54:19.710Z,1013.87
2016-04-22T00:55:19.681Z,1013.9
2016-04-22T00:56:19.652Z,1013.91
2016-04-22T00:57:19.639Z,1013.9
2016-04-22T00:58:19.595Z,1013.88
2016-04-22T00:59:19.583Z,1013.92
2016-04-22T01:00:19.538Z,1013.91
2016-04-22T01:01:19.525Z,1013.94
2016-04-22T01:02:19.496Z,1013.99
2016-04-22T01:03:19.468Z,1014.02
2016-04-22T01:04:19.439Z,1014.03
2016-04-22T01:05:19.411Z,1014.02
2016-04-22T01:06:19.382Z,1014.01
2016-04-22T01:07:19.354Z,1014
2016-04-22T01:08:19.325Z,1013.97
2016-04-22T01:09:19.296Z,1014
2016-04-22T01:10:19.268Z,1013.99
2016-04-22T01:11:19.237Z,1013.96
2016-04-22T01:12:19.208Z,1013.93
2016-04-22T01:13:19.180Z,1013.94
2016-04-22T01:14:19.151Z,1013.91
2016-04-22T01:15:19.123Z,1013.97
2016-04-22T01:16:19.094Z,1013.89
2016-04-22T01:17:19.065Z,1013.93
2016-04-22T01:18:19.037Z,1013.93
2016-04-22T01:19:19.024Z,1013.88
2016-04-22T01:20:18.995Z,1013.9
2016-04-22T01:21:18.967Z,1013.91
2016-04-22T01:22:18.939Z,1013.92
2016-04-22T01:23:18.910Z,1013.86
2016-04-22T01:24:18.881Z,1013.88
2016-04-22T01:25:18.853Z,1013.92
2016-04-22T01:26:18.825Z,1013.9
2016-04-22T01:27:18.795Z,1013.9
2016-04-22T01:28:18.767Z,1013.89
2016-04-22T01:29:18.739Z,1013.86
2016-04-22T01:30:18.710Z,1013.86
2016-04-22T01:31:18.681Z,1013.85
2016-04-22T01:32:18.653Z,1013.9
2016-04-22T01:33:18.624Z,1013.92
2016-04-22T01:34:18.596Z,1013.88
2016-04-22T01:35:18.567Z,1013.91
2016-04-22T01:36:18.539Z,1013.9
2016-04-22T01:37:18.510Z,1013.87
2016-04-22T01:38:18.482Z,1013.87
2016-04-22T01:39:18.453Z,1013.87
2016-04-22T01:40:18.424Z,1013.91
2016-04-22T01:41:18.396Z,1013.93
2016-04-22T01:42:18.383Z,1013.98
2016-04-22T01:43:18.355Z,1013.99
2016-04-22T01:44:18.326Z,1014.04
2016-04-22T01:45:18.297Z,1014.09
2016-04-22T01:46:18.268Z,1014.07
2016-04-22T01:47:18.240Z,1014.04
2016-04-22T01:48:18.212Z,1014.03
2016-04-22T01:49:18.183Z,1014.05
2016-04-22T01:50:18.154Z,1014.02
2016-04-22T01:51:18.126Z,1014.03
2016-04-22T01:52:18.098Z,1014.05
2016-04-22T01:53:18.068Z,1014.05
2016-04-22T01:54:18.040Z,1014.02
2016-04-22T01:55:18.012Z,1014.05
2016-04-22T01:56:17.984Z,1014.08
2016-04-22T01:57:17.954Z,1014.05
2016-04-22T01:58:17.926Z,1014.04
2016-04-22T01:59:17.897Z,1013.99
2016-04-22T02:00:17.869Z,1014.03
2016-04-22T02:01:17.840Z,1014.01
2016-04-22T02:02:17.812Z,1014.04
2016-04-22T02:03:17.783Z,1014.01
2016-04-22T02:04:17.755Z,1014.05
2016-04-22T02:05:17.726Z,1013.99
2016-04-22T02:06:17.697Z,1013.97
2016-04-22T02:07:17.669Z,1013.96
2016-04-22T02:08:17.641Z,1013.98
2016-04-22T02:09:17.612Z,1013.98
2016-04-22T02:10:17.583Z,1013.95
2016-04-22T02:11:17.555Z,1014.03
2016-04-22T02:12:17.527Z,1014.01
2016-04-22T02:13:17.497Z,1014.02
2016-04-22T02:14:17.469Z,1014.04
2016-04-22T02:15:17.441Z,1014.07
2016-04-22T02:16:17.412Z,1014.03
2016-04-22T02:17:17.383Z,1014.05
2016-04-22T02:18:17.355Z,1014.06
2016-04-22T02:19:17.342Z,1014.03
2016-04-22T02:20:17.298Z,1014.1
2016-04-22T02:21:17.269Z,1014.08
2016-04-22T02:22:17.241Z,1014.09
2016-04-22T02:23:17.228Z,1014.08
2016-04-22T02:24:17.199Z,1014.09
2016-04-22T02:25:17.154Z,1014.11
2016-04-22T02:26:17.142Z,1014.06
2016-04-22T02:27:17.098Z,1014.09
2016-04-22T02:28:17.070Z,1014.05
2016-04-22T02:29:17.056Z,1014.06
2016-04-22T02:30:17.012Z,1014.05
2016-04-22T02:31:16.984Z,1014.09
2016-04-22T02:32:16.955Z,1014.08
2016-04-22T02:33:16.926Z,1014.09
2016-04-22T02:34:16.897Z,1014.13
2016-04-22T02:35:16.869Z,1014.11
2016-04-22T02:36:16.841Z,1014.08
2016-04-22T02:37:16.812Z,1014.1
2016-04-22T02:38:16.783Z,1014.08
2016-04-22T02:39:16.755Z,1014.07
2016-04-22T02:40:16.727Z,1014.08
2016-04-22T02:41:16.697Z,1014.09
2016-04-22T02:42:16.669Z,1014.1
2016-04-22T02:43:16.641Z,1014.14
2016-04-22T02:44:16.613Z,1014.06
2016-04-22T02:45:16.583Z,1014.1
2016-04-22T02:46:16.555Z,1014.06
2016-04-22T02:47:16.526Z,1014.1
2016-04-22T02:48:16.498Z,1014.06
2016-04-22T02:49:16.469Z,1014.12
2016-04-22T02:50:16.440Z,1014.09
2016-04-22T02:51:16.412Z,1014.09
2016-04-22T02:52:16.384Z,1014.09
2016-04-22T02:53:16.355Z,1014.14
2016-04-22T02:54:16.326Z,1014.13
2016-04-22T02:55:16.298Z,1014.15
2016-04-22T02:56:16.269Z,1014.16
2016-04-22T02:57:16.241Z,1014.15
2016-04-22T02:58:16.213Z,1014.14
2016-04-22T02:59:16.183Z,1014.15
2016-04-22T03:00:16.156Z,1014.14
2016-04-22T03:01:16.142Z,1014.1
2016-04-22T03:02:16.098Z,1014.07
2016-04-22T03:03:16.070Z,1014.07
2016-04-22T03:04:16.041Z,1014.04
2016-04-22T03:05:16.012Z,1014.03
2016-04-22T03:06:15.983Z,1014.03
2016-04-22T03:07:15.955Z,1014.01
2016-04-22T03:08:15.927Z,1013.97
2016-04-22T03:09:15.897Z,1014
2016-04-22T03:10:15.869Z,1013.94
2016-04-22T03:11:15.841Z,1013.98
2016-04-22T03:12:15.813Z,1014
2016-04-22T03:13:15.784Z,1013.96
2016-04-22T03:14:15.755Z,1013.98
2016-04-22T03:15:15.727Z,1013.98
2016-04-22T03:16:15.699Z,1013.97
2016-04-22T03:17:15.669Z,1013.99
2016-04-22T03:18:15.641Z,1013.96
2016-04-22T03:19:15.613Z,1013.95
2016-04-22T03:20:15.584Z,1013.98
2016-04-22T03:21:15.555Z,1013.97
2016-04-22T03:22:15.543Z,1014
2016-04-22T03:23:15.498Z,1013.94
2016-04-22T03:24:15.470Z,1013.93
2016-04-22T03:25:15.441Z,1013.98
2016-04-22T03:26:15.413Z,1013.95
2016-04-22T03:27:15.385Z,1013.96
2016-04-22T03:28:15.356Z,1013.96
2016-04-22T03:29:15.327Z,1013.95
2016-04-22T03:30:15.283Z,1013.94
2016-04-22T03:31:15.270Z,1013.96
2016-04-22T03:32:15.226Z,1013.99
2016-04-22T03:33:15.197Z,1013.95
2016-04-22T03:34:15.184Z,1013.97
2016-04-22T03:35:15.139Z,1014.01
2016-04-22T03:36:15.111Z,1013.98
2016-04-22T03:37:15.083Z,1014.01
2016-04-22T03:38:15.054Z,1014.03
2016-04-22T03:39:15.026Z,1013.99
2016-04-22T03:40:14.997Z,1014.05
2016-04-22T03:41:14.969Z,1014.03
2016-04-22T03:42:14.941Z,1014.03
2016-04-22T03:43:14.927Z,1014.04
2016-04-22T03:44:14.883Z,1014.04
2016-04-22T03:45:14.855Z,1014.03
2016-04-22T03:46:14.841Z,1014
2016-04-22T03:47:14.797Z,1013.97
2016-04-22T03:48:14.769Z,1014
2016-04-22T03:49:14.740Z,1014.05
2016-04-22T03:50:14.712Z,1013.99
2016-04-22T03:51:14.682Z,1014.03
2016-04-22T03:52:14.654Z,1014.03
2016-04-22T03:53:14.626Z,1014.04
2016-04-22T03:54:14.613Z,1013.98
2016-04-22T03:55:14.569Z,1014.01
2016-04-22T03:56:14.541Z,1014
2016-04-22T03:57:14.512Z,1013.98
2016-04-22T03:58:14.499Z,1013.99
2016-04-22T03:59:14.454Z,1013.97
2016-04-22T04:00:14.426Z,1013.97
2016-04-22T04:01:14.398Z,1013.97
2016-04-22T04:02:14.369Z,1013.99
2016-04-22T04:03:14.340Z,1013.99
2016-04-22T04:04:14.311Z,1014.03
2016-04-22T04:05:14.283Z,1014.01
2016-04-22T04:06:14.255Z,1014.01
2016-04-22T04:07:14.225Z,1014
2016-04-22T04:08:14.198Z,1013.97
2016-04-22T04:09:14.169Z,1014
2016-04-22T04:10:14.141Z,1014.01
2016-04-22T04:11:14.112Z,1013.99
2016-04-22T04:12:14.083Z,1013.96
2016-04-22T04:13:14.070Z,1013.97
2016-04-22T04:14:14.041Z,1013.9
2016-04-22T04:15:13.997Z,1013.93
2016-04-22T04:16:13.969Z,1013.94
2016-04-22T04:17:13.940Z,1013.9
2016-04-22T04:18:13.912Z,1013.9
2016-04-22T04:19:13.883Z,1013.92
2016-04-22T04:20:13.854Z,1013.96
2016-04-22T04:21:13.826Z,1013.97
2016-04-22T04:22:13.829Z,1013.96
2016-04-22T04:23:13.783Z,1013.97
2016-04-22T04:24:13.793Z,1014
2016-04-22T04:25:13.805Z,1013.98
2016-04-22T04:26:13.815Z,1014.02
2016-04-22T04:27:13.825Z,1013.98
2016-04-22T04:28:13.825Z,1013.98
2016-04-22T04:29:13.811Z,1013.95
2016-04-22T04:30:13.798Z,1014
2016-04-22T04:31:13.782Z,1013.94
2016-04-22T04:32:13.784Z,1013.93
2016-04-22T04:33:13.750Z,1013.98
2016-04-22T04:34:13.727Z,1013.97
2016-04-22T04:35:13.703Z,1013.98
2016-04-22T04:36:13.679Z,1014.06
2016-04-22T04:37:13.657Z,1014.03
2016-04-22T04:38:13.646Z,1013.95
2016-04-22T04:39:13.620Z,1013.98
2016-04-22T04:40:13.594Z,1013.96
2016-04-22T04:41:13.566Z,1013.95
2016-04-22T04:42:13.540Z,1013.96
2016-04-22T04:43:13.513Z,1014.04
2016-04-22T04:44:13.485Z,1014
2016-04-22T04:45:13.456Z,1014.04
2016-04-22T04:46:13.428Z,1014.07
2016-04-22T04:47:13.400Z,1014.08
2016-04-22T04:48:13.372Z,1014.06
2016-04-22T04:49:13.344Z,1014.05
2016-04-22T04:50:13.316Z,1014.05
2016-04-22T04:51:13.288Z,1014.04
2016-04-22T04:52:13.260Z,1014.06
2016-04-22T04:53:13.231Z,1014.06
2016-04-22T04:54:13.203Z,1014.1
2016-04-22T04:55:13.174Z,1014.06
2016-04-22T04:56:13.146Z,1014.05
2016-04-22T04:57:13.116Z,1014.04
2016-04-22T04:58:13.104Z,1014.05
2016-04-22T04:59:13.060Z,1014.04
2016-04-22T05:00:13.062Z,1014.01
2016-04-22T05:01:13.018Z,1014.04
2016-04-22T05:02:12.990Z,1014.05
2016-04-22T05:03:12.961Z,1014.03
2016-04-22T05:04:12.932Z,1014.01
2016-04-22T05:05:12.904Z,1014.01
2016-04-22T05:06:12.876Z,1014.03
2016-04-22T05:07:12.848Z,1014.04
2016-04-22T05:08:12.818Z,1014.02
2016-04-22T05:09:12.790Z,1014.05
2016-04-22T05:10:12.762Z,1014.09
2016-04-22T05:11:12.734Z,1014.09
2016-04-22T05:12:12.705Z,1014.08
2016-04-22T05:13:12.676Z,1014.08
2016-04-22T05:14:12.648Z,1014.06
2016-04-22T05:15:12.620Z,1014.04
2016-04-22T05:16:12.591Z,1014.04
2016-04-22T05:17:12.578Z,1014.06
2016-04-22T05:18:12.549Z,1014.04
2016-04-22T05:19:12.521Z,1014.02
2016-04-22T05:20:12.493Z,1014.06
2016-04-22T05:21:12.464Z,1014.1
2016-04-22T05:22:12.435Z,1014.09
2016-04-22T05:23:12.423Z,1014.06
2016-04-22T05:24:12.378Z,1014.08
2016-04-22T05:25:12.350Z,1014.11
2016-04-22T05:26:12.336Z,1014.1
2016-04-22T05:27:12.308Z,1014.13
2016-04-22T05:28:12.280Z,1014.14
2016-04-22T05:29:12.251Z,1014.12
2016-04-22T05:30:12.222Z,1014.14
2016-04-22T05:31:12.194Z,1014.12
2016-04-22T05:32:12.166Z,1014.15
2016-04-22T05:33:12.136Z,1014.14
2016-04-22T05:34:12.124Z,1014.16
2016-04-22T05:35:12.095Z,1014.19
2016-04-22T05:36:12.066Z,1014.17
2016-04-22T05:37:12.038Z,1014.13
2016-04-22T05:38:12.010Z,1014.16
2016-04-22T05:39:11.981Z,1014.13
2016-04-22T05:40:11.953Z,1014.17
2016-04-22T05:41:11.923Z,1014.18
2016-04-22T05:42:11.911Z,1014.14
2016-04-22T05:43:11.882Z,1014.16
2016-04-22T05:44:11.854Z,1014.2
2016-04-22T05:45:11.826Z,1014.18
2016-04-22T05:46:11.796Z,1014.19
2016-04-22T05:47:11.768Z,1014.16
2016-04-22T05:48:11.740Z,1014.17
2016-04-22T05:49:11.726Z,1014.17
2016-04-22T05:50:11.698Z,1014.18
2016-04-22T05:51:11.669Z,1014.17
2016-04-22T05:52:11.640Z,1014.2
2016-04-22T05:53:11.612Z,1014.19
2016-04-22T05:54:11.599Z,1014.16
2016-04-22T05:55:11.570Z,1014.19
2016-04-22T05:56:11.542Z,1014.18
2016-04-22T05:57:11.514Z,1014.14
2016-04-22T05:58:11.485Z,1014.15
2016-04-22T05:59:11.457Z,1014.15
2016-04-22T06:00:11.444Z,1014.15
2016-04-22T06:01:11.415Z,1014.13
2016-04-22T06:02:11.386Z,1014.13
2016-04-22T06:03:11.358Z,1014.15
2016-04-22T06:04:11.330Z,1014.14
2016-04-22T06:05:11.317Z,1014.15
2016-04-22T06:06:11.288Z,1014.13
2016-04-22T06:07:11.260Z,1014.13
2016-04-22T06:08:11.231Z,1014.06
2016-04-22T06:09:11.203Z,1014.05
2016-04-22T06:10:11.173Z,1014.11
2016-04-22T06:11:11.160Z,1014.11
2016-04-22T06:12:11.148Z,1014.11
2016-04-22T06:13:11.104Z,1014.16
2016-04-22T06:14:11.074Z,1014.13
2016-04-22T06:15:11.047Z,1014.16
2016-04-22T06:16:11.017Z,1014.2
2016-04-22T06:17:11.004Z,1014.18
2016-04-22T06:18:10.992Z,1014.17
2016-04-22T06:19:10.963Z,1014.16
2016-04-22T06:20:10.919Z,1014.16
2016-04-22T06:21:10.890Z,1014.16
2016-04-22T06:22:10.878Z,1014.2
2016-04-22T06:23:10.848Z,1014.17
2016-04-22T06:24:10.820Z,1014.2
2016-04-22T06:25:10.808Z,1014.2
2016-04-22T06:26:10.779Z,1014.19
2016-04-22T06:27:10.751Z,1014.18
2016-04-22T06:28:10.722Z,1014.2
2016-04-22T06:29:10.694Z,1014.14
2016-04-22T06:30:10.664Z,1014.14
2016-04-22T06:31:10.637Z,1014.16
2016-04-22T06:32:10.623Z,1014.18
2016-04-22T06:33:10.595Z,1014.2
2016-04-22T06:34:10.567Z,1014.2
2016-04-22T06:35:10.538Z,1014.22
2016-04-22T06:36:10.509Z,1014.21
2016-04-22T06:37:10.497Z,1014.22
2016-04-22T06:38:10.468Z,1014.22
2016-04-22T06:39:10.439Z,1014.22
2016-04-22T06:40:10.410Z,1014.26
2016-04-22T06:41:10.397Z,1014.28
2016-04-22T06:42:10.369Z,1014.32
2016-04-22T06:43:10.340Z,1014.32
2016-04-22T06:44:10.312Z,1014.3
2016-04-22T06:45:10.283Z,1014.31
2016-04-22T06:46:10.271Z,1014.32
2016-04-22T06:47:10.242Z,1014.29
2016-04-22T06:48:10.213Z,1014.28
2016-04-22T06:49:10.185Z,1014.23
2016-04-22T06:50:10.157Z,1014.25
2016-04-22T06:51:10.143Z,1014.29
2016-04-22T06:52:10.115Z,1014.29
2016-04-22T06:53:10.086Z,1014.26
2016-04-22T06:54:10.058Z,1014.27
2016-04-22T06:55:10.044Z,1014.28
2016-04-22T06:56:10.016Z,1014.29
2016-04-22T06:57:09.987Z,1014.25
2016-04-22T06:58:09.959Z,1014.26
2016-04-22T06:59:09.931Z,1014.25
2016-04-22T07:00:09.918Z,1014.29
2016-04-22T07:01:09.889Z,1014.25
2016-04-22T07:02:09.860Z,1014.21
2016-04-22T07:03:09.831Z,1014.27
2016-04-22T07:04:09.819Z,1014.24
2016-04-22T07:05:09.791Z,1014.24
2016-04-22T07:06:09.761Z,1014.26
2016-04-22T07:07:09.733Z,1014.2
2016-04-22T07:08:09.705Z,1014.23
2016-04-22T07:09:09.691Z,1014.16
2016-04-22T07:10:09.663Z,1014.17
2016-04-22T07:11:09.635Z,1014.16
2016-04-22T07:12:09.622Z,1014.16
2016-04-22T07:13:09.594Z,1014.2
2016-04-22T07:14:09.565Z,1014.18
2016-04-22T07:15:09.536Z,1014.25
2016-04-22T07:16:09.507Z,1014.13
2016-04-22T07:17:09.494Z,1014.18
2016-04-22T07:18:09.466Z,1014.15
2016-04-22T07:19:09.437Z,1014.12
2016-04-22T07:20:09.409Z,1014.18
2016-04-22T07:21:09.396Z,1014.17
2016-04-22T07:22:09.367Z,1014.2
2016-04-22T07:23:09.339Z,1014.19
2016-04-22T07:24:09.326Z,1014.23
2016-04-22T07:25:09.297Z,1014.22
2016-04-22T07:26:09.268Z,1014.17
2016-04-22T07:27:09.240Z,1014.16
2016-04-22T07:28:09.227Z,1014.13
2016-04-22T07:29:09.198Z,1014.11
2016-04-22T07:30:09.170Z,1014.16
2016-04-22T07:31:09.157Z,1014.18
2016-04-22T07:32:09.129Z,1014.16
2016-04-22T07:33:09.100Z,1014.17
2016-04-22T07:34:09.086Z,1014.18
2016-04-22T07:35:09.059Z,1014.17
2016-04-22T07:36:09.030Z,1014.17
2016-04-22T07:37:09.017Z,1014.13
2016-04-22T07:38:08.989Z,1014.22
2016-04-22T07:39:08.975Z,1014.23
2016-04-22T07:40:08.947Z,1014.26
2016-04-22T07:41:08.934Z,1014.32
2016-04-22T07:42:08.890Z,1014.28
2016-04-22T07:43:10.111Z,1014.24
2016-04-22T07:44:10.067Z,1014.29
2016-04-22T07:45:09.741Z,1014.29
2016-04-22T07:46:10.057Z,1014.22
2016-04-22T07:47:08.794Z,1014.24
2016-04-22T07:48:10.062Z,1014.19
2016-04-22T07:49:09.784Z,1014.18
2016-04-22T07:50:10.037Z,1014.22
2016-04-22T07:51:10.117Z,1014.27
2016-04-22T07:52:09.870Z,1014.4
2016-04-22T07:53:10.013Z,1014.32
2016-04-22T07:54:10.047Z,1014.34
2016-04-22T07:55:10.050Z,1014.26
2016-04-22T07:56:10.037Z,1014.29
2016-04-22T07:57:09.884Z,1014.25
2016-04-22T07:58:09.980Z,1014.24
2016-04-22T07:59:09.733Z,1014.27
2016-04-22T08:00:09.704Z,1014.21
2016-04-22T08:01:08.535Z,1014.28
2016-04-22T08:02:09.803Z,1014.27
2016-04-22T08:03:09.586Z,1014.27
2016-04-22T08:04:09.856Z,1014.21
2016-04-22T08:05:10.062Z,1014.2
2016-04-22T08:06:08.438Z,1014.26
2016-04-22T08:07:08.426Z,1014.21
2016-04-22T08:08:08.413Z,1014.22
2016-04-22T08:09:08.384Z,1014.24
2016-04-22T08:10:08.372Z,1014.28
2016-04-22T08:11:08.358Z,1014.26
2016-04-22T08:12:08.330Z,1014.32
2016-04-22T08:13:08.317Z,1014.26
2016-04-22T08:14:08.304Z,1014.29
2016-04-22T08:15:08.275Z,1014.29
2016-04-22T08:16:08.263Z,1014.23
2016-04-22T08:17:09.562Z,1014.19
2016-04-22T08:18:08.221Z,1014.19
2016-04-22T08:19:08.208Z,1014.2
2016-04-22T08:20:08.180Z,1014.19
2016-04-22T08:21:08.166Z,1014.18
2016-04-22T08:22:08.138Z,1014.25
2016-04-22T08:23:08.126Z,1014.17
2016-04-22T08:24:08.112Z,1014.2
2016-04-22T08:25:08.084Z,1014.22
2016-04-22T08:26:08.071Z,1014.21
2016-04-22T08:27:08.057Z,1014.2
2016-04-22T08:28:08.029Z,1014.23
2016-04-22T08:29:08.017Z,1014.19
2016-04-22T08:30:07.987Z,1014.19
2016-04-22T08:31:07.975Z,1014.12
2016-04-22T08:32:07.962Z,1014.08
2016-04-22T08:33:07.933Z,1014.11
2016-04-22T08:34:07.920Z,1014.17
2016-04-22T08:35:07.908Z,1014.18
2016-04-22T08:36:07.878Z,1014.18
2016-04-22T08:37:07.867Z,1014.16
2016-04-22T08:38:07.853Z,1014.05
2016-04-22T08:39:07.839Z,1014.05
2016-04-22T08:40:07.796Z,1014.05
2016-04-22T08:41:07.783Z,1014.09
2016-04-22T08:42:07.770Z,1014.03
2016-04-22T08:43:07.758Z,1014.04
2016-04-22T08:44:07.728Z,1014.07
2016-04-22T08:45:07.716Z,1014.06
2016-04-22T08:46:07.688Z,1014.1
2016-04-22T08:47:07.674Z,1014.02
2016-04-22T08:48:07.646Z,1014.05
2016-04-22T08:49:07.633Z,1014.03
2016-04-22T08:50:07.604Z,1014
2016-04-22T08:51:07.591Z,1014.05
2016-04-22T08:52:07.578Z,1014.08
2016-04-22T08:53:07.550Z,1014.06
2016-04-22T08:54:07.537Z,1014.08
2016-04-22T08:55:07.524Z,1014.06
2016-04-22T08:56:07.496Z,1014.03
2016-04-22T08:57:07.467Z,1013.99
2016-04-22T08:58:07.453Z,1014
2016-04-22T08:59:07.440Z,1013.99
2016-04-22T09:00:07.413Z,1013.98
2016-04-22T09:01:07.399Z,1013.97
2016-04-22T09:02:07.371Z,1013.96
2016-04-22T09:03:07.358Z,1014.01
2016-04-22T09:04:07.329Z,1013.95
2016-04-22T09:05:07.317Z,1013.98
2016-04-22T09:06:07.287Z,1013.97
2016-04-22T09:07:07.275Z,1014.01
2016-04-22T09:08:07.247Z,1013.98
2016-04-22T09:09:07.218Z,1013.98
2016-04-22T09:10:07.205Z,1013.94
2016-04-22T09:11:07.192Z,1013.88
2016-04-22T09:12:07.178Z,1013.87
2016-04-22T09:13:07.150Z,1013.85
2016-04-22T09:14:07.121Z,1013.81
2016-04-22T09:15:07.108Z,1013.81
2016-04-22T09:16:07.081Z,1013.83
2016-04-22T09:17:07.067Z,1013.81
2016-04-22T09:18:07.039Z,1013.82
2016-04-22T09:19:07.026Z,1013.82
2016-04-22T09:20:06.997Z,1013.79
2016-04-22T09:21:06.985Z,1013.8
2016-04-22T09:22:06.955Z,1013.77
2016-04-22T09:23:07.168Z,1013.81
2016-04-22T09:24:06.921Z,1013.75
2016-04-22T09:25:06.892Z,1013.77
2016-04-22T09:26:06.880Z,1013.75
2016-04-22T09:27:06.851Z,1013.76
2016-04-22T09:28:06.838Z,1013.71
2016-04-22T09:29:06.810Z,1013.72
2016-04-22T09:30:06.797Z,1013.68
2016-04-22T09:31:06.768Z,1013.65
2016-04-22T09:32:06.756Z,1013.59
2016-04-22T09:33:06.727Z,1013.62
2016-04-22T09:34:06.713Z,1013.6
2016-04-22T09:35:06.686Z,1013.57
2016-04-22T09:36:06.673Z,1013.52
2016-04-22T09:37:06.660Z,1013.56
2016-04-22T09:38:06.632Z,1013.52
2016-04-22T09:39:06.603Z,1013.53
2016-04-22T09:40:06.590Z,1013.5
2016-04-22T09:41:06.561Z,1013.46
2016-04-22T09:42:06.533Z,1013.52
2016-04-22T09:43:06.520Z,1013.5
2016-04-22T09:44:06.507Z,1013.53
2016-04-22T09:45:06.478Z,1013.48
2016-04-22T09:46:06.450Z,1013.51
2016-04-22T09:47:06.438Z,1013.49
2016-04-22T09:48:06.409Z,1013.5
2016-04-22T09:49:06.396Z,1013.45
2016-04-22T09:50:06.367Z,1013.41
2016-04-22T09:51:06.354Z,1013.43
2016-04-22T09:52:06.326Z,1013.39
2016-04-22T09:53:06.312Z,1013.39
2016-04-22T09:54:06.299Z,1013.35
2016-04-22T09:55:06.271Z,1013.27
2016-04-22T09:56:06.243Z,1013.23
2016-04-22T09:57:06.230Z,1013.17
2016-04-22T09:58:06.201Z,1013.17
2016-04-22T09:59:06.188Z,1013.22
2016-04-22T10:00:06.159Z,1013.22
2016-04-22T10:01:06.146Z,1013.23
2016-04-22T10:02:06.118Z,1013.24
2016-04-22T10:03:06.105Z,1013.27
2016-04-22T10:04:06.077Z,1013.28
2016-04-22T10:05:06.063Z,1013.25
2016-04-22T10:06:06.035Z,1013.24
2016-04-22T10:07:06.022Z,1013.21
2016-04-22T10:13:32.055Z,1013.11
2016-04-22T10:14:32.027Z,1013.1
2016-04-22T10:15:32.015Z,1013.07
2016-04-22T10:16:31.986Z,1013.11
2016-04-22T10:17:31.973Z,1013.12
2016-04-22T10:18:31.960Z,1013.11
2016-04-22T10:19:31.932Z,1013.11
2016-04-22T10:20:31.904Z,1013.06
2016-04-22T10:21:31.890Z,1013.06
2016-04-22T10:22:31.877Z,1013.08
2016-04-22T10:23:31.848Z,1013.09
2016-04-22T10:24:31.835Z,1013.03
2016-04-22T10:25:31.807Z,1013.04
2016-04-22T10:26:31.794Z,1013.06
2016-04-22T10:27:31.781Z,1013.03
2016-04-22T10:28:31.753Z,1013
2016-04-22T10:29:31.724Z,1013
2016-04-22T10:30:31.711Z,1012.96
2016-04-22T10:31:31.683Z,1013.01
2016-04-22T10:32:31.670Z,1013.01
2016-04-22T10:33:31.657Z,1013.02
2016-04-22T10:34:31.629Z,1013.04
2016-04-22T10:35:31.615Z,1013.07
2016-04-22T10:36:31.586Z,1013.02
2016-04-22T10:37:31.574Z,1013.04
2016-04-22T10:38:31.542Z,1013.02
2016-04-22T10:39:31.530Z,1012.97
2016-04-22T10:40:31.501Z,1012.92
2016-04-22T10:41:31.488Z,1012.89
2016-04-22T10:42:31.475Z,1012.83
2016-04-22T10:43:31.447Z,1012.85
2016-04-22T10:44:31.434Z,1012.8
2016-04-22T10:45:31.405Z,1012.78
2016-04-22T10:46:31.392Z,1012.79
2016-04-22T10:47:31.363Z,1012.79
2016-04-22T10:48:31.366Z,1012.72
2016-04-22T10:49:31.338Z,1012.72
2016-04-22T10:50:31.309Z,1012.71
2016-04-22T10:51:31.296Z,1012.76
2016-04-22T10:52:31.298Z,1012.7
2016-04-22T10:53:31.254Z,1012.67
2016-04-22T10:54:31.226Z,1012.64
2016-04-22T10:55:31.213Z,1012.67
2016-04-22T10:56:31.200Z,1012.67
2016-04-22T10:57:31.171Z,1012.64
2016-04-22T10:58:31.159Z,1012.61
2016-04-22T10:59:31.130Z,1012.58
2016-04-22T11:00:31.117Z,1012.62
2016-04-22T11:01:31.104Z,1012.56
2016-04-22T11:02:31.076Z,1012.57
2016-04-22T11:03:31.062Z,1012.63
2016-04-22T11:04:31.034Z,1012.6
2016-04-22T11:05:31.021Z,1012.57
2016-04-22T11:06:31.009Z,1012.55
2016-04-22T11:07:30.981Z,1012.62
2016-04-22T11:08:30.967Z,1012.56
2016-04-22T11:09:30.938Z,1012.55
2016-04-22T11:10:30.925Z,1012.51
2016-04-22T11:11:30.913Z,1012.53
2016-04-22T11:12:30.883Z,1012.54
2016-04-22T11:13:30.871Z,1012.51
2016-04-22T11:14:30.842Z,1012.48
2016-04-22T11:15:30.830Z,1012.48
2016-04-22T11:16:30.801Z,1012.46
2016-04-22T11:17:30.788Z,1012.47
2016-04-22T11:18:30.774Z,1012.42
2016-04-22T11:19:30.746Z,1012.42
2016-04-22T11:20:30.733Z,1012.47
2016-04-22T11:21:30.721Z,1012.45
2016-04-22T11:22:30.677Z,1012.44
2016-04-22T11:23:30.654Z,1012.43
2016-04-22T11:24:30.642Z,1012.42
2016-04-22T11:25:30.614Z,1012.41
2016-04-22T11:26:30.600Z,1012.42
2016-04-22T11:27:30.587Z,1012.41
2016-04-22T11:28:30.559Z,1012.36
2016-04-22T11:29:30.546Z,1012.34
2016-04-22T11:30:30.517Z,1012.39
2016-04-22T11:31:30.505Z,1012.38
2016-04-22T11:32:30.476Z,1012.4
2016-04-22T11:33:30.464Z,1012.35
2016-04-22T11:34:30.434Z,1012.33
2016-04-22T11:35:30.421Z,1012.36
2016-04-22T11:36:30.409Z,1012.32
2016-04-22T11:37:30.380Z,1012.32
2016-04-22T11:38:30.366Z,1012.29
2016-04-22T11:39:30.338Z,1012.29
2016-04-22T11:40:30.325Z,1012.28
2016-04-22T11:41:30.297Z,1012.28
2016-04-22T11:42:30.284Z,1012.26
2016-04-22T11:43:30.255Z,1012.25
2016-04-22T11:44:30.227Z,1012.25
2016-04-22T11:45:30.214Z,1012.24
2016-04-22T11:46:30.201Z,1012.2
2016-04-22T11:47:30.172Z,1012.23
2016-04-22T11:48:30.159Z,1012.19
2016-04-22T11:49:30.146Z,1012.2
2016-04-22T11:50:30.134Z,1012.17
2016-04-22T11:51:30.089Z,1012.14
2016-04-22T11:52:30.076Z,1012.18
2016-04-22T11:53:30.048Z,1012.16
2016-04-22T11:54:30.035Z,1012.12
2016-04-22T11:55:30.006Z,1012.08
2016-04-22T11:56:29.993Z,1012.06
2016-04-22T11:57:29.964Z,1012.02
2016-04-22T11:58:29.953Z,1012.03
2016-04-22T11:59:29.923Z,1012
2016-04-22T12:00:29.895Z,1011.95
2016-04-22T12:01:29.882Z,1011.95
2016-04-22T12:02:29.869Z,1011.94
2016-04-22T12:03:29.841Z,1011.91
2016-04-22T12:04:29.812Z,1011.92
2016-04-22T12:05:29.799Z,1011.91
2016-04-22T12:06:29.770Z,1011.92
2016-04-22T12:07:29.758Z,1011.89
2016-04-22T12:08:29.900Z,1011.88
2016-04-22T12:09:29.716Z,1011.88
2016-04-22T12:10:29.688Z,1011.91
2016-04-22T12:11:29.674Z,1011.87
2016-04-22T12:12:29.661Z,1011.87
2016-04-22T12:13:29.632Z,1011.85
2016-04-22T12:14:29.604Z,1011.86